Time;durP1;ratioP1;P1;durP2;ratioP2;P2;SDS_P1;SDS_P2;PMS_P1;PMS_P2;Temp;Humidity;BMP_temperature;BMP_pressure;BME280_temperature;BME280_humidity;BME280_pressure;Samples;Min_cycle;Max_cycle;Signal;HPM_P1;HPM_P2
2020/12/05 00:00:07;;;;;;;;;;;3.00;99.90;;;;;;5031521;28;19959;-85
2020/12/05 00:02:32;;;;;;;;;;;2.90;99.90;;;;;;5030486;28;20008;-84
2020/12/05 00:04:58;;;;;;;;;;;2.90;99.90;;;;;;5029791;28;20015;-85
2020/12/05 00:07:23;;;;;;;;;;;2.90;99.90;;;;;;5029406;28;19916;-85
2020/12/05 00:09:49;;;;;;;;;;;2.90;99.90;;;;;;5030808;28;20379;-85
2020/12/05 00:12:14;;;;;;;;;;;2.90;99.90;;;;;;5034720;28;19917;-85
2020/12/05 00:14:40;;;;;;;;;;;2.90;99.90;;;;;;5041026;28;19919;-85
2020/12/05 00:17:05;;;;;;;;;;;3.00;99.90;;;;;;5066030;28;19916;-85
2020/12/05 00:19:31;;;;;;;;;;;3.00;99.90;;;;;;5051337;28;19909;-85
2020/12/05 00:21:57;;;;;;;;;;;3.00;99.90;;;;;;5051218;28;19959;-85
2020/12/05 00:24:23;;;;;;;;;;;3.10;99.90;;;;;;5051087;28;19987;-85
2020/12/05 00:26:49;;;;;;;;;;;3.10;99.90;;;;;;5051021;28;19909;-85
2020/12/05 00:29:14;;;;;;;;;;;3.10;99.90;;;;;;5050921;28;19991;-85
2020/12/05 00:31:40;;;;;;;;;;;3.10;99.90;;;;;;5051075;28;19912;-85
2020/12/05 00:34:06;;;;;;;;;;;3.00;99.90;;;;;;5050976;28;19912;-85
2020/12/05 00:36:31;;;;;;;;;;;3.00;99.90;;;;;;5067646;28;20257;-85
2020/12/05 00:38:57;;;;;;;;;;;2.90;99.90;;;;;;5067913;28;19988;-85
2020/12/05 00:41:22;;;;;;;;;;;2.90;99.90;;;;;;5050876;28;19993;-85
2020/12/05 00:43:48;;;;;;;;;;;2.90;99.90;;;;;;5042728;28;19916;-84
2020/12/05 00:46:13;;;;;;;;;;;2.80;99.90;;;;;;5034189;28;19909;-85
2020/12/05 00:48:39;;;;;;;;;;;2.80;99.90;;;;;;5031137;28;19909;-85
2020/12/05 00:51:04;;;;;;;;;;;2.80;99.90;;;;;;5031017;28;19932;-85
2020/12/05 00:53:29;;;;;;;;;;;2.80;99.90;;;;;;5031013;28;19913;-85
2020/12/05 00:55:55;;;;;;;;;;;2.90;99.90;;;;;;5030749;28;19963;-85
2020/12/05 00:58:20;;;;;;;;;;;2.90;99.90;;;;;;5030943;28;20368;-85
2020/12/05 01:00:46;;;;;;;;;;;2.90;99.90;;;;;;5030794;28;19910;-85
2020/12/05 01:03:11;;;;;;;;;;;2.90;99.90;;;;;;5030889;28;19909;-85
2020/12/05 01:05:37;;;;;;;;;;;2.90;99.90;;;;;;5030705;28;19913;-85
2020/12/05 01:08:03;;;;;;;;;;;2.80;99.90;;;;;;5032031;28;20376;-85
2020/12/05 01:10:29;;;;;;;;;;;2.80;99.90;;;;;;5032986;28;19913;-86
2020/12/05 01:12:54;;;;;;;;;;;2.70;99.90;;;;;;5039660;28;20395;-85
2020/12/05 01:15:20;;;;;;;;;;;2.60;99.90;;;;;;5042578;28;19916;-84
2020/12/05 01:17:45;;;;;;;;;;;2.60;99.90;;;;;;5034389;28;19909;-85
2020/12/05 01:20:11;;;;;;;;;;;2.50;99.90;;;;;;5034432;28;19963;-85
2020/12/05 01:22:36;;;;;;;;;;;2.50;99.90;;;;;;5034356;28;19999;-85
2020/12/05 01:25:02;;;;;;;;;;;2.40;99.90;;;;;;5034397;28;20012;-85
2020/12/05 01:27:28;;;;;;;;;;;2.40;99.90;;;;;;5035331;28;20721;-85
2020/12/05 01:29:53;;;;;;;;;;;2.40;99.90;;;;;;5034290;28;19959;-84
2020/12/05 01:32:19;;;;;;;;;;;2.30;99.90;;;;;;5034105;28;19963;-85
2020/12/05 01:34:45;;;;;;;;;;;2.30;99.90;;;;;;5034470;28;19916;-85
2020/12/05 01:37:10;;;;;;;;;;;2.30;99.90;;;;;;5033848;28;19912;-84
2020/12/05 01:39:36;;;;;;;;;;;2.20;99.90;;;;;;5035290;28;19909;-85
2020/12/05 01:42:02;;;;;;;;;;;2.20;99.90;;;;;;5037375;28;19917;-84
2020/12/05 01:44:28;;;;;;;;;;;2.10;99.90;;;;;;5046762;28;19913;-84
2020/12/05 01:46:53;;;;;;;;;;;2.00;99.90;;;;;;5054824;28;19909;-84
2020/12/05 01:49:21;;;;;;;;;;;2.00;99.90;;;;;;5053806;28;19909;-84
2020/12/05 01:51:46;;;;;;;;;;;1.90;99.90;;;;;;5053857;28;20491;-85
2020/12/05 01:54:13;;;;;;;;;;;1.90;99.90;;;;;;5070320;28;19912;-85
2020/12/05 01:56:39;;;;;;;;;;;1.80;99.90;;;;;;5054823;28;20015;-85
2020/12/05 01:59:04;;;;;;;;;;;1.80;99.90;;;;;;5053541;28;20382;-84
2020/12/05 02:01:31;;;;;;;;;;;1.80;99.90;;;;;;5053647;28;19912;-85
2020/12/05 02:03:57;;;;;;;;;;;1.70;99.90;;;;;;5053608;28;19909;-84
2020/12/05 02:06:22;;;;;;;;;;;1.70;99.90;;;;;;5054660;28;19909;-84
2020/12/05 02:08:51;;;;;;;;;;;1.70;99.90;;;;;;5053474;28;19909;-83
2020/12/05 02:11:18;;;;;;;;;;;1.70;99.90;;;;;;5053533;28;19909;-84
2020/12/05 02:13:46;;;;;;;;;;;1.60;99.90;;;;;;5044732;28;19978;-84
2020/12/05 02:16:12;;;;;;;;;;;1.60;99.90;;;;;;5038188;28;19959;-84
2020/12/05 02:18:37;;;;;;;;;;;1.60;99.90;;;;;;5034556;28;19917;-84
2020/12/05 02:21:04;;;;;;;;;;;1.60;99.90;;;;;;5033242;28;19910;-84
2020/12/05 02:23:29;;;;;;;;;;;1.60;99.90;;;;;;5033910;28;20465;-84
2020/12/05 02:26:06;;;;;;;;;;;1.60;99.90;;;;;;5033085;28;20008;-84
2020/12/05 02:28:34;;;;;;;;;;;1.60;99.90;;;;;;5034179;28;19909;-84
2020/12/05 02:31:00;;;;;;;;;;;1.70;99.90;;;;;;5032978;28;19909;-84
2020/12/05 02:33:26;;;;;;;;;;;1.70;99.90;;;;;;5033039;28;19913;-84
2020/12/05 02:35:51;;;;;;;;;;;1.70;99.90;;;;;;5032782;28;19909;-84
2020/12/05 02:38:16;;;;;;;;;;;1.70;99.90;;;;;;5032823;28;19909;-85
2020/12/05 02:40:42;;;;;;;;;;;1.70;99.90;;;;;;5032838;28;19909;-84
2020/12/05 02:43:08;;;;;;;;;;;1.70;99.90;;;;;;5037813;28;20269;-84
2020/12/05 02:45:34;;;;;;;;;;;1.70;99.90;;;;;;5041933;28;19916;-84
2020/12/05 02:48:01;;;;;;;;;;;1.70;99.90;;;;;;5033937;28;19916;-84
2020/12/05 02:50:27;;;;;;;;;;;1.60;99.90;;;;;;5032482;28;19909;-83
2020/12/05 02:52:52;;;;;;;;;;;1.60;99.90;;;;;;5032517;28;19913;-83
2020/12/05 02:55:18;;;;;;;;;;;1.60;99.90;;;;;;5032472;28;19909;-83
2020/12/05 02:57:43;;;;;;;;;;;1.50;99.90;;;;;;5032500;28;19952;-83
2020/12/05 03:00:09;;;;;;;;;;;1.50;99.90;;;;;;5032367;28;20323;-83
2020/12/05 03:02:34;;;;;;;;;;;1.40;99.90;;;;;;5033801;28;19957;-82
2020/12/05 03:05:00;;;;;;;;;;;1.40;99.90;;;;;;5032504;28;19909;-83
2020/12/05 03:07:25;;;;;;;;;;;1.40;99.90;;;;;;5032126;28;19909;-84
2020/12/05 03:09:50;;;;;;;;;;;1.40;99.90;;;;;;5032263;28;20055;-83
2020/12/05 03:12:16;;;;;;;;;;;1.50;99.90;;;;;;5037631;28;19909;-84
2020/12/05 03:14:41;;;;;;;;;;;1.50;99.90;;;;;;5045055;28;20371;-84
2020/12/05 03:17:07;;;;;;;;;;;1.50;99.90;;;;;;5051732;28;19913;-83
2020/12/05 03:19:32;;;;;;;;;;;1.50;99.90;;;;;;5052010;28;19912;-83
2020/12/05 03:21:58;;;;;;;;;;;1.50;99.90;;;;;;5053234;28;19924;-84
2020/12/05 03:24:23;;;;;;;;;;;1.50;99.90;;;;;;5068651;28;20375;-83
2020/12/05 03:26:49;;;;;;;;;;;1.60;99.90;;;;;;5052819;28;20353;-83
2020/12/05 03:29:14;;;;;;;;;;;1.60;99.90;;;;;;5068515;28;19947;-83
2020/12/05 03:31:54;;;;;;;;;;;1.60;99.90;;;;;;5051649;28;20363;-83
2020/12/05 03:34:19;;;;;;;;;;;1.70;99.90;;;;;;5051569;28;19913;-83
2020/12/05 03:36:45;;;;;;;;;;;1.70;99.90;;;;;;5051317;28;19984;-83
2020/12/05 03:39:10;;;;;;;;;;;1.70;99.90;;;;;;5052888;28;19912;-84
2020/12/05 03:41:36;;;;;;;;;;;1.70;99.90;;;;;;5051384;28;20339;-84
2020/12/05 03:44:02;;;;;;;;;;;1.60;99.90;;;;;;5031885;28;19931;-83
2020/12/05 03:46:27;;;;;;;;;;;1.70;99.90;;;;;;5051106;28;20387;-83
2020/12/05 03:48:53;;;;;;;;;;;1.70;99.90;;;;;;5051420;28;20291;-83
2020/12/05 03:51:18;;;;;;;;;;;1.70;99.90;;;;;;5051553;28;20364;-83
2020/12/05 03:53:44;;;;;;;;;;;1.70;99.90;;;;;;5051253;28;20005;-83
2020/12/05 03:56:09;;;;;;;;;;;1.80;99.90;;;;;;5051315;28;20372;-84
2020/12/05 03:58:35;;;;;;;;;;;1.80;99.90;;;;;;5051192;28;19909;-84
2020/12/05 04:01:00;;;;;;;;;;;1.80;99.90;;;;;;5052686;28;19909;-83
2020/12/05 04:03:25;;;;;;;;;;;1.70;99.90;;;;;;5051216;28;19948;-85
2020/12/05 04:05:51;;;;;;;;;;;1.70;99.90;;;;;;5051074;28;19913;-84
2020/12/05 04:08:16;;;;;;;;;;;1.70;99.90;;;;;;5051287;28;19909;-84
2020/12/05 04:10:42;;;;;;;;;;;1.70;99.90;;;;;;5052551;28;19909;-84
2020/12/05 04:13:07;;;;;;;;;;;1.70;99.90;;;;;;5052164;28;19913;-84
2020/12/05 04:15:33;;;;;;;;;;;1.70;99.90;;;;;;5042726;28;19955;-84
2020/12/05 04:17:58;;;;;;;;;;;1.70;99.90;;;;;;5051062;28;19959;-84
2020/12/05 04:20:24;;;;;;;;;;;1.70;99.90;;;;;;5051030;28;19909;-84
2020/12/05 04:22:49;;;;;;;;;;;1.70;99.90;;;;;;5067925;28;20529;-84
2020/12/05 04:25:15;;;;;;;;;;;1.70;99.90;;;;;;5067848;28;19909;-84
2020/12/05 04:27:40;;;;;;;;;;;1.80;99.90;;;;;;5051085;28;20494;-83
2020/12/05 04:30:06;;;;;;;;;;;1.80;99.90;;;;;;5052230;28;19913;-85
2020/12/05 04:32:31;;;;;;;;;;;1.80;99.90;;;;;;5051114;28;20376;-84
2020/12/05 04:34:58;;;;;;;;;;;1.80;99.90;;;;;;5050921;28;19912;-84
2020/12/05 04:37:23;;;;;;;;;;;1.80;99.90;;;;;;5051005;28;20296;-84
2020/12/05 04:39:49;;;;;;;;;;;1.80;99.90;;;;;;5067372;28;19909;-83
2020/12/05 04:42:15;;;;;;;;;;;1.70;99.90;;;;;;5050959;28;19917;-83
2020/12/05 04:44:40;;;;;;;;;;;1.80;99.90;;;;;;5045027;28;19909;-84
2020/12/05 04:47:06;;;;;;;;;;;1.70;99.90;;;;;;5056135;28;20004;-84
2020/12/05 04:49:31;;;;;;;;;;;1.70;99.90;;;;;;5071404;28;19913;-84
2020/12/05 04:52:01;;;;;;;;;;;1.70;99.90;;;;;;5054829;28;20430;-84
2020/12/05 04:54:27;;;;;;;;;;;1.60;99.90;;;;;;5055963;28;20627;-84
2020/12/05 04:56:56;;;;;;;;;;;1.70;99.90;;;;;;5055865;28;19948;-84
2020/12/05 04:59:21;;;;;;;;;;;1.60;99.90;;;;;;5054780;28;19909;-83
2020/12/05 05:01:49;;;;;;;;;;;1.70;99.90;;;;;;5055879;28;20386;-85
2020/12/05 05:04:14;;;;;;;;;;;1.70;99.90;;;;;;5054696;28;19916;-84
2020/12/05 05:06:40;;;;;;;;;;;1.70;99.90;;;;;;5054356;28;20369;-84
2020/12/05 05:09:05;;;;;;;;;;;1.70;99.90;;;;;;5054489;28;19916;-84
2020/12/05 05:11:31;;;;;;;;;;;1.70;99.90;;;;;;5054449;28;19909;-84
2020/12/05 05:14:00;;;;;;;;;;;1.70;99.90;;;;;;5046088;28;19920;-85
2020/12/05 05:16:27;;;;;;;;;;;1.70;99.90;;;;;;5035907;28;19916;-84
2020/12/05 05:18:52;;;;;;;;;;;1.60;99.90;;;;;;5034317;28;19913;-84
2020/12/05 05:21:37;;;;;;;;;;;1.60;99.90;;;;;;5034458;28;20376;-84
2020/12/05 05:24:22;;;;;;;;;;;1.60;99.90;;;;;;5034207;28;20364;-84
2020/12/05 05:27:17;;;;;;;;;;;1.60;99.90;;;;;;5033593;28;20360;-84
2020/12/05 05:29:44;;;;;;;;;;;1.50;99.90;;;;;;5021585;28;19996;-84
2020/12/05 05:32:22;;;;;;;;;;;1.60;99.90;;;;;;5034047;28;20038;-84
2020/12/05 05:34:47;;;;;;;;;;;1.60;99.90;;;;;;5034289;28;20549;-85
2020/12/05 05:37:17;;;;;;;;;;;1.60;99.90;;;;;;5033756;28;19935;-85
2020/12/05 05:39:43;;;;;;;;;;;1.60;99.90;;;;;;5035003;28;19909;-85
2020/12/05 05:42:09;;;;;;;;;;;1.60;99.90;;;;;;5039331;28;19917;-85
2020/12/05 05:44:34;;;;;;;;;;;1.60;99.90;;;;;;5045474;28;19923;-84
2020/12/05 05:47:00;;;;;;;;;;;1.70;99.90;;;;;;5053494;28;19915;-84
2020/12/05 05:49:29;;;;;;;;;;;1.70;99.90;;;;;;5055024;28;19916;-85
2020/12/05 05:51:55;;;;;;;;;;;1.70;99.90;;;;;;5053823;28;19919;-85
2020/12/05 05:54:26;;;;;;;;;;;1.70;99.90;;;;;;5053537;28;19912;-85
2020/12/05 05:57:02;;;;;;;;;;;1.80;99.90;;;;;;5053079;28;19909;-85
2020/12/05 05:59:32;;;;;;;;;;;1.80;99.90;;;;;;5053594;28;19920;-85
2020/12/05 06:01:58;;;;;;;;;;;1.80;99.90;;;;;;5053561;28;19920;-85
2020/12/05 06:04:28;;;;;;;;;;;1.80;99.90;;;;;;5054691;28;19996;-85
2020/12/05 06:06:54;;;;;;;;;;;1.80;99.90;;;;;;5069948;28;20000;-85
2020/12/05 06:09:22;;;;;;;;;;;1.80;99.90;;;;;;5053354;28;20011;-85
2020/12/05 06:11:49;;;;;;;;;;;1.70;99.90;;;;;;5053260;28;19961;-85
2020/12/05 06:14:15;;;;;;;;;;;1.70;99.90;;;;;;5052825;28;20022;-85
2020/12/05 06:16:40;;;;;;;;;;;1.70;99.90;;;;;;5033098;28;19948;-85
2020/12/05 06:19:06;;;;;;;;;;;1.70;99.90;;;;;;5033101;28;19910;-85
2020/12/05 06:21:35;;;;;;;;;;;1.70;99.90;;;;;;5034463;28;19909;-85
2020/12/05 06:24:04;;;;;;;;;;;1.70;99.90;;;;;;5033120;28;19932;-85
2020/12/05 06:26:31;;;;;;;;;;;1.70;99.90;;;;;;5033097;28;19917;-85
2020/12/05 06:28:57;;;;;;;;;;;1.70;99.90;;;;;;5032944;28;20352;-85
2020/12/05 06:31:38;;;;;;;;;;;1.70;99.90;;;;;;5034576;28;19916;-85
2020/12/05 06:34:04;;;;;;;;;;;1.70;99.90;;;;;;5033041;28;19920;-85
2020/12/05 06:36:29;;;;;;;;;;;1.70;99.90;;;;;;5032978;28;19999;-84
2020/12/05 06:39:03;;;;;;;;;;;1.70;99.90;;;;;;5034206;28;19913;-85
2020/12/05 06:41:33;;;;;;;;;;;1.60;99.90;;;;;;5033154;28;20533;-85
2020/12/05 06:44:07;;;;;;;;;;;1.60;99.90;;;;;;5037844;28;20360;-84
2020/12/05 06:46:54;;;;;;;;;;;1.60;99.90;;;;;;5051878;28;19959;-85
2020/12/05 06:49:35;;;;;;;;;;;1.60;99.90;;;;;;5052731;28;20370;-85
2020/12/05 06:52:19;;;;;;;;;;;1.60;99.90;;;;;;5052651;28;19935;-85
2020/12/05 06:55:02;;;;;;;;;;;1.60;99.90;;;;;;5052593;28;19913;-85
2020/12/05 06:57:28;;;;;;;;;;;1.60;99.90;;;;;;5052492;28;19920;-85
2020/12/05 07:00:13;;;;;;;;;;;1.70;99.90;;;;;;5052362;28;20003;-84
2020/12/05 07:02:39;;;;;;;;;;;1.60;99.90;;;;;;5052519;28;19996;-85
2020/12/05 07:05:21;;;;;;;;;;;1.60;99.90;;;;;;5052494;28;20398;-85
2020/12/05 07:07:47;;;;;;;;;;;1.60;99.90;;;;;;5052495;28;19917;-85
2020/12/05 07:10:13;;;;;;;;;;;1.60;99.90;;;;;;5052236;28;19913;-85
2020/12/05 07:12:39;;;;;;;;;;;1.60;99.90;;;;;;5047003;28;20394;-85
2020/12/05 07:15:37;;;;;;;;;;;1.70;99.90;;;;;;5046097;28;19910;-85
2020/12/05 07:18:02;;;;;;;;;;;1.70;99.90;;;;;;4999274;28;19909;-85
2020/12/05 07:20:28;;;;;;;;;;;1.70;99.90;;;;;;5032197;28;19978;-86
2020/12/05 07:22:54;;;;;;;;;;;1.70;99.90;;;;;;5033391;28;19909;-85
2020/12/05 07:25:20;;;;;;;;;;;1.60;99.90;;;;;;5032400;28;19909;-84
2020/12/05 07:27:46;;;;;;;;;;;1.60;99.90;;;;;;5031920;28;19996;-85
2020/12/05 07:30:11;;;;;;;;;;;1.60;99.90;;;;;;5031985;28;19960;-85
2020/12/05 07:32:38;;;;;;;;;;;1.60;99.90;;;;;;5031922;28;19917;-85
2020/12/05 07:35:13;;;;;;;;;;;1.60;99.90;;;;;;5031815;28;19953;-85
2020/12/05 07:37:39;;;;;;;;;;;1.60;99.90;;;;;;5032417;28;19909;-85
2020/12/05 07:40:06;;;;;;;;;;;1.70;99.90;;;;;;5031954;28;19971;-85
2020/12/05 07:42:35;;;;;;;;;;;1.70;99.90;;;;;;5040120;28;19920;-85
2020/12/05 07:45:05;;;;;;;;;;;1.70;99.90;;;;;;5043388;28;19916;-85
2020/12/05 07:47:31;;;;;;;;;;;1.70;99.90;;;;;;5051232;28;20363;-84
2020/12/05 07:49:56;;;;;;;;;;;1.70;99.90;;;;;;5051725;28;19959;-85
2020/12/05 07:52:22;;;;;;;;;;;1.70;99.90;;;;;;5052649;28;20000;-85
2020/12/05 07:54:55;;;;;;;;;;;1.70;99.90;;;;;;5051747;28;19909;-85
2020/12/05 07:57:27;;;;;;;;;;;1.80;99.90;;;;;;5051720;28;19909;-85
2020/12/05 08:00:05;;;;;;;;;;;1.80;99.90;;;;;;5068191;28;19909;-84
2020/12/05 08:02:31;;;;;;;;;;;1.80;99.90;;;;;;5052708;28;20428;-84
2020/12/05 08:05:01;;;;;;;;;;;1.90;99.90;;;;;;5052905;28;19992;-85
2020/12/05 08:07:33;;;;;;;;;;;1.90;99.90;;;;;;5051234;28;20360;-85
2020/12/05 08:09:59;;;;;;;;;;;1.90;99.90;;;;;;5051360;28;19916;-85
2020/12/05 08:12:39;;;;;;;;;;;2.00;99.90;;;;;;5051180;28;20368;-86
2020/12/05 08:15:05;;;;;;;;;;;2.00;99.90;;;;;;5043341;28;19909;-84
2020/12/05 08:17:36;;;;;;;;;;;2.10;99.90;;;;;;5038633;28;20012;-84
2020/12/05 08:20:02;;;;;;;;;;;2.10;99.90;;;;;;5033604;28;19963;-84
2020/12/05 08:22:29;;;;;;;;;;;2.10;99.90;;;;;;5032777;28;19924;-84
2020/12/05 08:24:56;;;;;;;;;;;2.20;99.90;;;;;;5032826;28;20292;-85
2020/12/05 08:27:22;;;;;;;;;;;2.20;99.90;;;;;;5032525;28;19909;-85
2020/12/05 08:29:48;;;;;;;;;;;2.10;99.90;;;;;;5033588;28;19987;-85
2020/12/05 08:32:18;;;;;;;;;;;2.10;99.90;;;;;;5032652;28;19909;-85
2020/12/05 08:34:43;;;;;;;;;;;2.10;99.90;;;;;;5032831;28;19909;-85
2020/12/05 08:37:15;;;;;;;;;;;2.10;99.90;;;;;;5033188;28;19916;-85
2020/12/05 08:39:41;;;;;;;;;;;2.10;99.90;;;;;;5031733;28;19909;-84
2020/12/05 08:42:07;;;;;;;;;;;2.20;99.90;;;;;;5035697;28;19942;-84
2020/12/05 08:44:32;;;;;;;;;;;2.30;99.90;;;;;;5039383;28;20299;-83
2020/12/05 08:47:02;;;;;;;;;;;2.40;99.90;;;;;;5051767;28;19909;-85
2020/12/05 08:49:27;;;;;;;;;;;2.40;99.90;;;;;;5052072;28;20376;-85
2020/12/05 08:51:53;;;;;;;;;;;2.50;99.90;;;;;;5052224;28;19983;-84
2020/12/05 08:54:19;;;;;;;;;;;2.50;99.90;;;;;;5051630;28;20406;-84
2020/12/05 08:56:44;;;;;;;;;;;2.60;99.90;;;;;;5051495;28;19916;-84
2020/12/05 08:59:11;;;;;;;;;;;2.70;99.90;;;;;;5051700;28;19917;-85
2020/12/05 09:01:38;;;;;;;;;;;2.70;99.90;;;;;;5052240;28;19998;-85
2020/12/05 09:04:04;;;;;;;;;;;2.80;99.90;;;;;;5051764;28;19909;-85
2020/12/05 09:06:30;;;;;;;;;;;2.80;99.90;;;;;;5051761;28;20252;-84
2020/12/05 09:08:55;;;;;;;;;;;2.80;99.90;;;;;;5050863;28;19909;-85
2020/12/05 09:11:22;;;;;;;;;;;2.80;99.90;;;;;;5050878;28;20000;-84
2020/12/05 09:13:47;;;;;;;;;;;2.90;99.90;;;;;;5042472;28;20379;-84
2020/12/05 09:16:13;;;;;;;;;;;2.90;99.90;;;;;;5033993;28;19909;-84
2020/12/05 09:18:48;;;;;;;;;;;2.90;99.90;;;;;;5030820;28;19939;-85
2020/12/05 09:21:18;;;;;;;;;;;3.00;99.90;;;;;;5030832;28;19916;-85
2020/12/05 09:23:45;;;;;;;;;;;3.00;99.90;;;;;;5031025;28;19932;-85
2020/12/05 09:26:11;;;;;;;;;;;3.00;99.90;;;;;;5031936;28;19924;-86
2020/12/05 09:28:36;;;;;;;;;;;3.10;99.90;;;;;;5030965;28;20423;-85
2020/12/05 09:31:07;;;;;;;;;;;3.10;99.90;;;;;;5032052;28;19936;-86
2020/12/05 09:33:33;;;;;;;;;;;3.20;99.90;;;;;;5039640;28;19959;-86
2020/12/05 09:35:58;;;;;;;;;;;3.20;99.90;;;;;;5053118;28;19913;-86
2020/12/05 09:38:24;;;;;;;;;;;3.30;99.90;;;;;;5037429;28;19956;-85
2020/12/05 09:40:49;;;;;;;;;;;3.40;99.90;;;;;;5034490;28;19909;-85
2020/12/05 09:43:15;;;;;;;;;;;3.40;99.90;;;;;;5043035;28;19921;-84
2020/12/05 09:45:41;;;;;;;;;;;3.40;99.90;;;;;;5041680;28;19963;-85
2020/12/05 09:48:06;;;;;;;;;;;3.40;99.90;;;;;;5040184;28;19909;-86
2020/12/05 09:50:32;;;;;;;;;;;3.30;99.90;;;;;;5041077;28;20269;-85
2020/12/05 09:52:59;;;;;;;;;;;3.30;99.90;;;;;;5041456;28;19983;-85
2020/12/05 09:55:25;;;;;;;;;;;3.30;99.90;;;;;;5051881;28;19916;-85
2020/12/05 09:57:50;;;;;;;;;;;3.30;99.90;;;;;;5053524;28;20287;-85
2020/12/05 10:00:16;;;;;;;;;;;3.30;99.90;;;;;;5053692;28;20280;-85
2020/12/05 10:02:41;;;;;;;;;;;3.30;99.90;;;;;;5053582;28;20003;-86
2020/12/05 10:05:07;;;;;;;;;;;3.40;99.90;;;;;;5053658;28;19913;-85
2020/12/05 10:07:33;;;;;;;;;;;3.50;99.90;;;;;;5053423;28;19909;-85
2020/12/05 10:09:59;;;;;;;;;;;3.50;99.90;;;;;;5053498;28;19916;-85
2020/12/05 10:12:24;;;;;;;;;;;3.50;99.90;;;;;;5053238;28;20291;-86
2020/12/05 10:14:50;;;;;;;;;;;3.60;99.90;;;;;;5045025;28;20382;-85
2020/12/05 10:17:15;;;;;;;;;;;3.50;99.90;;;;;;5069856;28;19948;-85
2020/12/05 10:19:41;;;;;;;;;;;3.50;99.90;;;;;;5053282;28;19912;-85
2020/12/05 10:22:06;;;;;;;;;;;3.60;99.90;;;;;;5053318;28;19915;-84
2020/12/05 10:24:32;;;;;;;;;;;3.60;99.90;;;;;;5053184;28;19959;-86
2020/12/05 10:26:57;;;;;;;;;;;3.60;99.90;;;;;;5053200;28;19912;-86
2020/12/05 10:29:23;;;;;;;;;;;3.60;99.90;;;;;;5053076;28;20818;-85
2020/12/05 10:31:50;;;;;;;;;;;3.60;99.90;;;;;;5053148;28;19913;-85
2020/12/05 10:34:16;;;;;;;;;;;3.60;99.90;;;;;;5054277;28;19917;-85
2020/12/05 10:36:42;;;;;;;;;;;3.60;99.90;;;;;;5052921;28;19987;-85
2020/12/05 10:39:08;;;;;;;;;;;3.60;99.90;;;;;;5052902;28;19920;-85
2020/12/05 10:41:36;;;;;;;;;;;3.60;99.90;;;;;;5054654;28;20398;-85
2020/12/05 10:44:02;;;;;;;;;;;3.60;99.90;;;;;;5042272;28;20416;-85
2020/12/05 10:46:28;;;;;;;;;;;3.60;99.90;;;;;;5051173;28;20051;-85
2020/12/05 10:48:53;;;;;;;;;;;3.60;99.90;;;;;;5054291;28;19954;-85
2020/12/05 10:51:19;;;;;;;;;;;3.60;99.90;;;;;;5052704;28;19916;-85
2020/12/05 10:53:44;;;;;;;;;;;3.60;99.90;;;;;;5052847;28;19920;-86
2020/12/05 10:56:10;;;;;;;;;;;3.50;99.90;;;;;;5052410;28;19959;-85
2020/12/05 10:58:35;;;;;;;;;;;3.50;99.90;;;;;;5053993;28;19915;-84
2020/12/05 11:01:00;;;;;;;;;;;3.40;99.90;;;;;;5052877;28;19934;-85
2020/12/05 11:03:26;;;;;;;;;;;3.40;99.90;;;;;;5052728;28;19909;-85
2020/12/05 11:05:52;;;;;;;;;;;3.40;99.90;;;;;;5052636;28;19942;-85
2020/12/05 11:08:17;;;;;;;;;;;3.40;99.90;;;;;;5052465;28;19971;-84
2020/12/05 11:10:43;;;;;;;;;;;3.40;99.90;;;;;;5052791;28;19909;-85
2020/12/05 11:13:08;;;;;;;;;;;3.30;99.90;;;;;;5044678;28;19913;-85
2020/12/05 11:15:34;;;;;;;;;;;3.30;99.90;;;;;;5044563;28;19909;-85
2020/12/05 11:17:59;;;;;;;;;;;3.30;99.90;;;;;;5052309;28;19975;-85
2020/12/05 11:20:25;;;;;;;;;;;3.30;99.90;;;;;;5053376;28;19909;-85
2020/12/05 11:22:50;;;;;;;;;;;3.30;99.90;;;;;;5052220;28;19908;-85
2020/12/05 11:25:16;;;;;;;;;;;3.30;99.90;;;;;;5052499;28;20402;-85
2020/12/05 11:27:42;;;;;;;;;;;3.30;99.90;;;;;;5052270;28;19909;-85
2020/12/05 11:30:07;;;;;;;;;;;3.30;99.90;;;;;;5052519;28;19967;-86
2020/12/05 11:32:33;;;;;;;;;;;3.30;99.90;;;;;;5051877;28;20299;-85
2020/12/05 11:34:58;;;;;;;;;;;3.40;99.90;;;;;;5068600;28;19958;-85
2020/12/05 11:37:24;;;;;;;;;;;3.40;99.90;;;;;;5051702;28;19955;-86
2020/12/05 11:39:49;;;;;;;;;;;3.50;99.90;;;;;;5052825;28;20016;-85
2020/12/05 11:42:15;;;;;;;;;;;3.50;99.90;;;;;;5051616;28;19924;-85
2020/12/05 11:44:40;;;;;;;;;;;3.50;99.90;;;;;;5043528;28;20373;-85
2020/12/05 11:47:05;;;;;;;;;;;3.50;99.90;;;;;;5051674;28;19908;-85
2020/12/05 11:49:32;;;;;;;;;;;3.50;99.90;;;;;;5052018;28;19908;-85
2020/12/05 11:51:57;;;;;;;;;;;3.50;99.90;;;;;;5051787;28;19917;-85
2020/12/05 11:54:23;;;;;;;;;;;3.60;99.90;;;;;;5051096;28;20016;-85
2020/12/05 11:56:49;;;;;;;;;;;3.50;99.90;;;;;;5051272;28;19915;-85
2020/12/05 11:59:14;;;;;;;;;;;3.30;99.90;;;;;;5051435;28;19909;-85
2020/12/05 12:01:40;;;;;;;;;;;3.30;99.90;;;;;;5051624;28;20012;-85
2020/12/05 12:04:06;;;;;;;;;;;3.30;99.90;;;;;;5051276;28;19935;-85
2020/12/05 12:06:31;;;;;;;;;;;3.40;99.90;;;;;;5051147;28;19913;-85
2020/12/05 12:08:57;;;;;;;;;;;3.40;99.90;;;;;;5052470;28;20003;-85
2020/12/05 12:11:22;;;;;;;;;;;3.50;99.90;;;;;;5051272;28;20280;-85
2020/12/05 12:13:48;;;;;;;;;;;3.50;99.90;;;;;;5060986;28;19913;-85
2020/12/05 12:16:14;;;;;;;;;;;3.40;99.90;;;;;;5035816;28;19909;-85
2020/12/05 12:18:39;;;;;;;;;;;3.40;99.90;;;;;;5031269;28;19910;-84
2020/12/05 12:21:05;;;;;;;;;;;3.50;99.90;;;;;;5031322;28;19916;-85
2020/12/05 12:23:30;;;;;;;;;;;3.50;99.90;;;;;;5031204;28;19936;-85
2020/12/05 12:25:56;;;;;;;;;;;3.50;99.90;;;;;;5031169;28;20383;-85
2020/12/05 12:28:21;;;;;;;;;;;3.50;99.90;;;;;;5031070;28;19952;-85
2020/12/05 12:30:47;;;;;;;;;;;3.40;99.90;;;;;;5031210;28;19913;-85
2020/12/05 12:33:13;;;;;;;;;;;3.40;99.90;;;;;;5031225;28;20439;-85
2020/12/05 12:35:38;;;;;;;;;;;3.50;99.90;;;;;;5030960;28;19910;-85
2020/12/05 12:38:04;;;;;;;;;;;3.50;99.90;;;;;;5031042;28;20052;-85
2020/12/05 12:40:29;;;;;;;;;;;3.50;99.90;;;;;;5031362;28;20356;-85
2020/12/05 12:42:57;;;;;;;;;;;3.50;99.90;;;;;;5036658;28;20003;-85
2020/12/05 12:45:28;;;;;;;;;;;3.50;99.90;;;;;;5042544;28;19915;-85
2020/12/05 12:50:31;;;;;;;;;;;3.60;99.90;;;;;;5052673;28;19912;-85
2020/12/05 12:52:56;;;;;;;;;;;3.50;99.90;;;;;;5050945;28;19912;-85
2020/12/05 12:55:22;;;;;;;;;;;3.50;99.90;;;;;;5050842;28;20418;-84
2020/12/05 12:57:48;;;;;;;;;;;3.50;99.90;;;;;;5050842;28;19920;-84
2020/12/05 13:00:14;;;;;;;;;;;3.60;99.90;;;;;;5050865;28;19908;-85
2020/12/05 13:02:39;;;;;;;;;;;3.60;99.90;;;;;;5050807;28;19909;-84
2020/12/05 13:05:04;;;;;;;;;;;3.60;99.90;;;;;;5051081;28;19959;-84
2020/12/05 13:07:30;;;;;;;;;;;3.60;99.90;;;;;;5055633;28;19909;-85
2020/12/05 13:09:55;;;;;;;;;;;3.60;99.90;;;;;;5054611;28;19931;-84
2020/12/05 13:12:21;;;;;;;;;;;3.60;99.90;;;;;;5049435;28;19910;-84
2020/12/05 13:14:46;;;;;;;;;;;3.70;99.90;;;;;;5046098;28;20287;-86
2020/12/05 13:17:12;;;;;;;;;;;3.80;99.90;;;;;;5054430;28;20019;-84
2020/12/05 13:19:37;;;;;;;;;;;3.80;99.90;;;;;;5054346;28;19913;-84
2020/12/05 13:22:03;;;;;;;;;;;3.90;99.90;;;;;;5054404;28;20486;-84
2020/12/05 13:24:28;;;;;;;;;;;3.90;99.90;;;;;;5052426;28;19919;-84
2020/12/05 13:26:53;;;;;;;;;;;3.90;99.90;;;;;;5052490;28;19909;-84
2020/12/05 13:29:19;;;;;;;;;;;3.80;99.90;;;;;;5046257;28;19913;-84
2020/12/05 13:31:44;;;;;;;;;;;3.80;99.90;;;;;;5034474;28;20276;-84
2020/12/05 13:34:10;;;;;;;;;;;3.80;99.90;;;;;;5045537;28;19913;-84
2020/12/05 13:36:35;;;;;;;;;;;3.80;99.90;;;;;;5040068;28;19963;-84
2020/12/05 13:39:01;;;;;;;;;;;3.80;99.90;;;;;;5034313;28;19909;-84
2020/12/05 13:41:28;;;;;;;;;;;3.90;99.90;;;;;;5049896;28;20253;-84
2020/12/05 13:43:54;;;;;;;;;;;3.90;99.90;;;;;;5043248;28;20311;-84
2020/12/05 13:46:20;;;;;;;;;;;3.90;99.90;;;;;;5033820;28;19996;-84
2020/12/05 13:48:46;;;;;;;;;;;3.80;99.90;;;;;;5035240;28;20272;-85
2020/12/05 13:51:12;;;;;;;;;;;3.80;99.90;;;;;;5035203;28;19912;-84
2020/12/05 13:53:37;;;;;;;;;;;3.80;99.90;;;;;;5033727;28;20078;-84
2020/12/05 13:56:03;;;;;;;;;;;3.80;99.90;;;;;;5033665;28;20384;-84
2020/12/05 13:58:28;;;;;;;;;;;3.80;99.90;;;;;;5033760;28;20006;-84
2020/12/05 14:00:54;;;;;;;;;;;3.80;99.90;;;;;;5033876;28;19909;-84
2020/12/05 14:03:19;;;;;;;;;;;3.80;99.90;;;;;;5033671;28;19959;-85
2020/12/05 14:05:45;;;;;;;;;;;3.80;99.90;;;;;;5033547;28;19916;-85
2020/12/05 14:08:10;;;;;;;;;;;3.80;99.90;;;;;;5033438;28;20404;-85
2020/12/05 14:10:36;;;;;;;;;;;3.80;99.90;;;;;;5032819;28;19913;-87
2020/12/05 14:13:01;;;;;;;;;;;3.90;99.90;;;;;;5044655;28;20011;-85
2020/12/05 14:15:27;;;;;;;;;;;3.80;99.90;;;;;;5044595;28;20003;-85
2020/12/05 14:17:52;;;;;;;;;;;3.90;99.90;;;;;;5050868;28;20464;-85
2020/12/05 14:20:18;;;;;;;;;;;3.90;99.90;;;;;;5051521;28;20012;-85
2020/12/05 14:22:43;;;;;;;;;;;3.90;99.90;;;;;;5068746;28;19912;-85
2020/12/05 14:25:09;;;;;;;;;;;3.80;99.90;;;;;;5070105;28;20007;-85
2020/12/05 14:27:34;;;;;;;;;;;3.80;99.90;;;;;;5052308;28;19909;-85
2020/12/05 14:30:00;;;;;;;;;;;3.70;99.90;;;;;;5053061;28;19909;-85